Augusta, Wisconsin
Current Conditions -  °F | °C
As of 12:56 AM on Wednesday 26 Nov 2014 (Local Time) from KEAU Reporting Station
Overcast Overcast  
Wind Chill: 16°   Ceiling: 7500
Heat Index: 22°   Visibility: 10mi
Dew Point: 15°   Wind: 5mph
Humidity: 75%   Direction: 110°ESE
Pressure: 30.08"   Gusts: NA
Location:  44.68°N, 91.12°W
Report Text: KEAU 260656Z AUTO 11004KT 10SM OVC075 M06/M09 A3008 RMK AO2 SLP203 T10561094
Loading
Personal Weather Stations






























Interactive Weather Map New forecast layout! Learn more

10-Day Weather Forecast

Advertisements
Track Severe Weather on mobile